Capitol Logistics 2606

Operating for CKS



KSFO
San Francisco International Airport
San Francisco, California
KCVG
Cincinnati/Northern Kentucky International Airport
Covington, Kentucky

Activity Log

Date Flight Route Aircraft Duration
No Flights Yet

Route Details

Aircraft Information
Primary: Boeing 767-300BDSF
Backup: Boeing 757-200SF
Route Data
Distance: 2033nm
Duration: 3h 43m
Recm'd Route: TRUKN2 SYRAH Q128 FLOOD J28 PUB J64 HLC J80 MCI J24 STL ENL SARGO3
Origin Wx: KSFO 141856Z 04005KT 10SM FEW040 16/07 A2998 RMK AO2 SLP152 T01610072
Dest. Wx: KCVG 141852Z 22006KT 10SM FEW041 BKN130 BKN250 14/03 A3005 RMK AO2 SLP171 T01440033
Notes: